sensor_id;sensor_type;location;lat;lon;timestamp;pressure;altitude;pressure_sealevel;temperature;humidity
49943;BME280;36011;53.362;58.948;2022-12-29T00:01:54;97778.69;;;-9.58;64.21
49943;BME280;36011;53.362;58.948;2022-12-29T00:04:56;97778.81;;;-9.54;64.05
49943;BME280;36011;53.362;58.948;2022-12-29T00:07:57;97772.13;;;-9.49;64.34
49943;BME280;36011;53.362;58.948;2022-12-29T00:10:58;97775.75;;;-9.40;63.92
49943;BME280;36011;53.362;58.948;2022-12-29T00:13:59;97772.56;;;-9.33;64.20
49943;BME280;36011;53.362;58.948;2022-12-29T00:17:21;97771.03;;;-9.28;63.64
49943;BME280;36011;53.362;58.948;2022-12-29T00:20:24;97766.88;;;-9.24;64.11
49943;BME280;36011;53.362;58.948;2022-12-29T00:23:48;97774.53;;;-9.23;63.72
49943;BME280;36011;53.362;58.948;2022-12-29T00:27:09;97767.81;;;-9.21;64.08
49943;BME280;36011;53.362;58.948;2022-12-29T00:30:31;97769.63;;;-9.17;63.67
49943;BME280;36011;53.362;58.948;2022-12-29T00:33:53;97773.06;;;-9.15;63.51
49943;BME280;36011;53.362;58.948;2022-12-29T00:37:17;97766.31;;;-9.13;63.76
49943;BME280;36011;53.362;58.948;2022-12-29T00:40:38;97769.63;;;-9.17;63.49
49943;BME280;36011;53.362;58.948;2022-12-29T00:43:57;97765.25;;;-9.21;63.21
49943;BME280;36011;53.362;58.948;2022-12-29T00:47:07;97770.50;;;-9.16;63.54
49943;BME280;36011;53.362;58.948;2022-12-29T00:50:10;97766.41;;;-9.10;63.71
49943;BME280;36011;53.362;58.948;2022-12-29T00:53:14;97755.44;;;-9.07;63.30
49943;BME280;36011;53.362;58.948;2022-12-29T00:56:18;97755.38;;;-9.09;63.53
49943;BME280;36011;53.362;58.948;2022-12-29T00:59:21;97754.41;;;-9.14;63.43
49943;BME280;36011;53.362;58.948;2022-12-29T01:02:29;97754.22;;;-9.20;63.44
49943;BME280;36011;53.362;58.948;2022-12-29T01:05:35;97743.09;;;-9.23;63.72
49943;BME280;36011;53.362;58.948;2022-12-29T01:08:38;97753.22;;;-9.27;63.37
49943;BME280;36011;53.362;58.948;2022-12-29T01:11:41;97757.44;;;-9.27;63.39
49943;BME280;36011;53.362;58.948;2022-12-29T01:14:45;97747.25;;;-9.27;63.57
49943;BME280;36011;53.362;58.948;2022-12-29T01:17:51;97747.25;;;-9.27;63.57
49943;BME280;36011;53.362;58.948;2022-12-29T01:21:01;97749.72;;;-9.30;63.60
49943;BME280;36011;53.362;58.948;2022-12-29T01:24:04;97745.47;;;-9.31;63.88
49943;BME280;36011;53.362;58.948;2022-12-29T01:27:05;97752.28;;;-9.30;63.44
49943;BME280;36011;53.362;58.948;2022-12-29T01:30:09;97747.19;;;-9.30;63.42
49943;BME280;36011;53.362;58.948;2022-12-29T01:33:12;97752.28;;;-9.30;63.53
49943;BME280;36011;53.362;58.948;2022-12-29T01:36:17;97755.72;;;-9.28;63.48
49943;BME280;36011;53.362;58.948;2022-12-29T01:39:18;97750.63;;;-9.28;63.62
49943;BME280;36011;53.362;58.948;2022-12-29T01:42:22;97742.06;;;-9.30;63.30
49943;BME280;36011;53.362;58.948;2022-12-29T01:45:25;97748.00;;;-9.31;63.68
49943;BME280;36011;53.362;58.948;2022-12-29T01:48:29;97753.81;;;-9.35;63.79
49943;BME280;36011;53.362;58.948;2022-12-29T01:51:35;97749.47;;;-9.39;63.45
49943;BME280;36011;53.362;58.948;2022-12-29T01:54:41;97747.81;;;-9.37;63.86
49943;BME280;36011;53.362;58.948;2022-12-29T01:57:45;97747.09;;;-9.33;63.62
49943;BME280;36011;53.362;58.948;2022-12-29T02:00:49;97750.56;;;-9.31;63.81
49943;BME280;36011;53.362;58.948;2022-12-29T02:03:54;97750.56;;;-9.31;63.55
49943;BME280;36011;53.362;58.948;2022-12-29T02:07:01;97756.47;;;-9.32;63.76
49943;BME280;36011;53.362;58.948;2022-12-29T02:10:04;97755.53;;;-9.34;63.57
49943;BME280;36011;53.362;58.948;2022-12-29T02:13:05;97751.19;;;-9.38;63.99
49943;BME280;36011;53.362;58.948;2022-12-29T02:22:40;97766.88;;;-9.55;63.58
49943;BME280;36011;53.362;58.948;2022-12-29T02:25:56;97768.44;;;-9.60;64.14
49943;BME280;36011;53.362;58.948;2022-12-29T02:41:49;97782.06;;;-9.58;63.70
49943;BME280;36011;53.362;58.948;2022-12-29T02:45:00;97773.53;;;-9.60;64.08
49943;BME280;36011;53.362;58.948;2022-12-29T02:51:11;97778.53;;;-9.63;63.96
49943;BME280;36011;53.362;58.948;2022-12-29T02:54:18;97770.09;;;-9.62;63.79
49943;BME280;36011;53.362;58.948;2022-12-29T02:57:38;97763.34;;;-9.60;64.18
49943;BME280;36011;53.362;58.948;2022-12-29T03:01:03;97765.94;;;-9.58;64.09
49943;BME280;36011;53.362;58.948;2022-12-29T03:07:25;97758.22;;;-9.60;64.09
49943;BME280;36011;53.362;58.948;2022-12-29T03:10:35;97755.69;;;-9.60;63.97
49943;BME280;36011;53.362;58.948;2022-12-29T03:13:47;97754.06;;;-9.58;63.89
49943;BME280;36011;53.362;58.948;2022-12-29T03:17:12;97756.69;;;-9.55;63.98
49943;BME280;36011;53.362;58.948;2022-12-29T03:20:24;97738.94;;;-9.52;63.75
49943;BME280;36011;53.362;58.948;2022-12-29T03:23:27;97745.72;;;-9.52;63.90
49943;BME280;36011;53.362;58.948;2022-12-29T03:26:29;97746.50;;;-9.55;63.52
49943;BME280;36011;53.362;58.948;2022-12-29T03:29:35;97737.94;;;-9.57;63.48
49943;BME280;36011;53.362;58.948;2022-12-29T03:32:43;97747.28;;;-9.57;63.48
49943;BME280;36011;53.362;58.948;2022-12-29T03:35:45;97755.81;;;-9.55;64.07
49943;BME280;36011;53.362;58.948;2022-12-29T03:38:51;97754.22;;;-9.52;63.70
49943;BME280;36011;53.362;58.948;2022-12-29T03:42:01;97750.97;;;-9.47;63.50
49943;BME280;36011;53.362;58.948;2022-12-29T03:45:04;97746.78;;;-9.44;63.87
49943;BME280;36011;53.362;58.948;2022-12-29T03:48:14;97752.03;;;-9.39;63.96
49943;BME280;36011;53.362;58.948;2022-12-29T03:51:21;97751.28;;;-9.35;63.77
49943;BME280;36011;53.362;58.948;2022-12-29T03:54:22;97742.91;;;-9.31;64.24
49943;BME280;36011;53.362;58.948;2022-12-29T03:57:25;97754.13;;;-9.24;63.78
49943;BME280;36011;53.362;58.948;2022-12-29T04:00:31;97761.06;;;-9.19;63.61
49943;BME280;36011;53.362;58.948;2022-12-29T04:03:35;97755.91;;;-9.20;63.43
49943;BME280;36011;53.362;58.948;2022-12-29T04:06:40;97764.41;;;-9.20;63.47
49943;BME280;36011;53.362;58.948;2022-12-29T04:09:44;97756.97;;;-9.12;63.81
49943;BME280;36011;53.362;58.948;2022-12-29T04:12:50;97759.75;;;-9.03;63.74
49943;BME280;36011;53.362;58.948;2022-12-29T04:15:51;97758.28;;;-8.95;63.89
49943;BME280;36011;53.362;58.948;2022-12-29T04:18:54;97762.75;;;-8.86;63.54
49943;BME280;36011;53.362;58.948;2022-12-29T04:21:57;97762.81;;;-8.83;63.25
49943;BME280;36011;53.362;58.948;2022-12-29T04:24:59;97770.59;;;-8.80;63.82
49943;BME280;36011;53.362;58.948;2022-12-29T04:28:03;97758.78;;;-8.75;63.27
49943;BME280;36011;53.362;58.948;2022-12-29T04:31:09;97763.03;;;-8.75;63.59
49943;BME280;36011;53.362;58.948;2022-12-29T04:34:10;97764.78;;;-8.73;63.29
49943;BME280;36011;53.362;58.948;2022-12-29T04:37:10;97763.22;;;-8.68;63.18
49943;BME280;36011;53.362;58.948;2022-12-29T04:40:11;97759.81;;;-8.68;63.43
49943;BME280;36011;53.362;58.948;2022-12-29T04:43:20;97769.31;;;-8.63;63.15
49943;BME280;36011;53.362;58.948;2022-12-29T04:46:22;97769.38;;;-8.60;63.84
49943;BME280;36011;53.362;58.948;2022-12-29T04:49:30;97769.38;;;-8.60;63.42
49943;BME280;36011;53.362;58.948;2022-12-29T04:52:37;97774.56;;;-8.56;63.57
49943;BME280;36011;53.362;58.948;2022-12-29T04:55:41;97774.78;;;-8.47;63.12
49943;BME280;36011;53.362;58.948;2022-12-29T04:58:44;97779.31;;;-8.34;63.53
49943;BME280;36011;53.362;58.948;2022-12-29T05:01:48;97772.66;;;-8.27;63.43
49943;BME280;36011;53.362;58.948;2022-12-29T05:04:51;97775.41;;;-8.20;63.43
49943;BME280;36011;53.362;58.948;2022-12-29T05:07:56;97780.50;;;-8.20;63.06
49943;BME280;36011;53.362;58.948;2022-12-29T05:11:00;97783.97;;;-8.18;62.96
49943;BME280;36011;53.362;58.948;2022-12-29T05:14:04;97780.63;;;-8.14;63.32
49943;BME280;36011;53.362;58.948;2022-12-29T05:20:46;97777.81;;;-7.88;63.52
49943;BME280;36011;53.362;58.948;2022-12-29T05:23:49;97783.19;;;-7.76;62.66
49943;BME280;36011;53.362;58.948;2022-12-29T05:26:50;97788.38;;;-7.73;62.41
49943;BME280;36011;53.362;58.948;2022-12-29T05:29:53;97784.97;;;-7.72;62.41
49943;BME280;36011;53.362;58.948;2022-12-29T05:32:57;97770.44;;;-7.74;62.58
49943;BME280;36011;53.362;58.948;2022-12-29T05:36:04;97774.69;;;-7.75;62.98
49943;BME280;36011;53.362;58.948;2022-12-29T05:39:14;97776.47;;;-7.71;62.57
49943;BME280;36011;53.362;58.948;2022-12-29T05:42:20;97778.28;;;-7.66;62.21
49943;BME280;36011;53.362;58.948;2022-12-29T05:45:22;97781.72;;;-7.64;62.45
49943;BME280;36011;53.362;58.948;2022-12-29T05:48:24;97775.91;;;-7.57;62.17
49943;BME280;36011;53.362;58.948;2022-12-29T05:55:08;97771.09;;;-7.42;62.06
49943;BME280;36011;53.362;58.948;2022-12-29T05:58:12;97778.13;;;-7.32;62.57
49943;BME280;36011;53.362;58.948;2022-12-29T06:01:14;97780.97;;;-7.18;61.90
49943;BME280;36011;53.362;58.948;2022-12-29T06:04:15;97778.31;;;-7.23;61.56
49943;BME280;36011;53.362;58.948;2022-12-29T06:07:25;97768.97;;;-7.20;62.32
49943;BME280;36011;53.362;58.948;2022-12-29T06:10:29;97769.88;;;-7.17;61.61
49943;BME280;36011;53.362;58.948;2022-12-29T06:13:35;97774.25;;;-7.13;62.03
49943;BME280;36011;53.362;58.948;2022-12-29T06:16:38;97782.03;;;-7.05;62.09
49943;BME280;36011;53.362;58.948;2022-12-29T06:19:42;97783.78;;;-7.03;61.66
49943;BME280;36011;53.362;58.948;2022-12-29T06:22:47;97779.63;;;-6.99;62.08
49943;BME280;36011;53.362;58.948;2022-12-29T06:25:50;97779.72;;;-6.93;61.62
49943;BME280;36011;53.362;58.948;2022-12-29T06:28:51;97786.59;;;-6.90;61.32
49943;BME280;36011;53.362;58.948;2022-12-29T06:31:53;97786.44;;;-6.98;61.65
49943;BME280;36011;53.362;58.948;2022-12-29T06:34:56;97788.13;;;-7.00;61.38
49943;BME280;36011;53.362;58.948;2022-12-29T06:38:00;97798.41;;;-6.97;61.61
49943;BME280;36011;53.362;58.948;2022-12-29T06:41:04;97778.88;;;-6.93;61.07
49943;BME280;36011;53.362;58.948;2022-12-29T06:44:08;97780.69;;;-6.88;61.40
49943;BME280;36011;53.362;58.948;2022-12-29T06:47:09;97779.13;;;-6.78;61.17
49943;BME280;36011;53.362;58.948;2022-12-29T06:50:13;97780.16;;;-6.68;60.92
49943;BME280;36011;53.362;58.948;2022-12-29T06:53:14;97775.06;;;-6.65;60.73
49943;BME280;36011;53.362;58.948;2022-12-29T06:56:16;97771.81;;;-6.58;61.18
49943;BME280;36011;53.362;58.948;2022-12-29T06:59:19;97763.44;;;-6.48;60.97
49943;BME280;36011;53.362;58.948;2022-12-29T07:02:20;97763.69;;;-6.33;60.37
49943;BME280;36011;53.362;58.948;2022-12-29T07:05:24;97766.53;;;-6.13;60.24
49943;BME280;36011;53.362;58.948;2022-12-29T07:08:27;97757.28;;;-6.03;59.77
49943;BME280;36011;53.362;58.948;2022-12-29T07:11:30;97757.69;;;-5.72;59.36
49943;BME280;36011;53.362;58.948;2022-12-29T07:14:35;97752.03;;;-5.48;58.95
49943;BME280;36011;53.362;58.948;2022-12-29T07:17:37;97748.69;;;-5.43;59.09
49943;BME280;36011;53.362;58.948;2022-12-29T07:20:38;97750.38;;;-5.43;58.79
49943;BME280;36011;53.362;58.948;2022-12-29T07:23:39;97749.56;;;-5.40;58.76
49943;BME280;36011;53.362;58.948;2022-12-29T07:26:40;97741.94;;;-5.33;58.81
49943;BME280;36011;53.362;58.948;2022-12-29T07:29:42;97744.50;;;-5.34;58.52
49943;BME280;36011;53.362;58.948;2022-12-29T07:32:45;97744.53;;;-5.31;58.73
49943;BME280;36011;53.362;58.948;2022-12-29T07:35:49;97748.03;;;-5.25;58.50
49943;BME280;36011;53.362;58.948;2022-12-29T07:38:50;97746.44;;;-5.15;58.81
49943;BME280;36011;53.362;58.948;2022-12-29T07:41:55;97742.31;;;-5.01;58.64
49943;BME280;36011;53.362;58.948;2022-12-29T07:44:59;97746.72;;;-4.84;58.50
49943;BME280;36011;53.362;58.948;2022-12-29T07:48:04;97751.16;;;-4.68;57.70
49943;BME280;36011;53.362;58.948;2022-12-29T07:51:11;97753.78;;;-4.62;57.76
49943;BME280;36011;53.362;58.948;2022-12-29T07:54:15;97748.75;;;-4.51;57.49
49943;BME280;36011;53.362;58.948;2022-12-29T07:57:22;97750.66;;;-4.30;57.75
49943;BME280;36011;53.362;58.948;2022-12-29T08:00:26;97753.34;;;-4.13;57.51
49943;BME280;36011;53.362;58.948;2022-12-29T08:03:29;97740.56;;;-3.99;56.97
49943;BME280;36011;53.362;58.948;2022-12-29T08:06:33;97733.78;;;-3.85;57.16
49943;BME280;36011;53.362;58.948;2022-12-29T08:09:34;97739.00;;;-3.76;56.46
49943;BME280;36011;53.362;58.948;2022-12-29T08:12:37;97740.75;;;-3.69;56.77
49943;BME280;36011;53.362;58.948;2022-12-29T08:15:44;97739.00;;;-3.76;56.31
49943;BME280;36011;53.362;58.948;2022-12-29T08:18:48;97738.91;;;-3.91;56.59
49943;BME280;36011;53.362;58.948;2022-12-29T08:21:49;97738.88;;;-3.97;57.02
49943;BME280;36011;53.362;58.948;2022-12-29T08:24:53;97740.63;;;-3.93;56.92
49943;BME280;36011;53.362;58.948;2022-12-29T08:27:57;97738.88;;;-3.97;57.28
49943;BME280;36011;53.362;58.948;2022-12-29T08:31:01;97733.69;;;-4.02;57.41
49943;BME280;36011;53.362;58.948;2022-12-29T08:34:06;97740.50;;;-4.12;56.83
49943;BME280;36011;53.362;58.948;2022-12-29T08:37:19;97743.81;;;-4.25;57.01
49943;BME280;36011;53.362;58.948;2022-12-29T08:40:34;97741.13;;;-4.40;57.49
49943;BME280;36011;53.362;58.948;2022-12-29T08:43:38;97738.34;;;-4.65;57.57
49943;BME280;36011;53.362;58.948;2022-12-29T08:46:39;97732.34;;;-4.68;58.21
49943;BME280;36011;53.362;58.948;2022-12-29T08:49:44;97735.00;;;-4.58;57.85
49943;BME280;36011;53.362;58.948;2022-12-29T08:52:48;97731.72;;;-4.41;58.09
49943;BME280;36011;53.362;58.948;2022-12-29T08:55:55;97732.63;;;-4.33;57.74
49943;BME280;36011;53.362;58.948;2022-12-29T08:59:00;97724.09;;;-4.28;57.32
49943;BME280;36011;53.362;58.948;2022-12-29T09:02:10;97727.47;;;-4.35;56.74
49943;BME280;36011;53.362;58.948;2022-12-29T09:05:13;97717.81;;;-4.65;57.18
49943;BME280;36011;53.362;58.948;2022-12-29T09:08:20;97723.72;;;-4.75;56.58
49943;BME280;36011;53.362;58.948;2022-12-29T09:11:22;97716.72;;;-4.90;57.76
49943;BME280;36011;53.362;58.948;2022-12-29T09:14:26;97723.59;;;-4.87;58.17
49943;BME280;36011;53.362;58.948;2022-12-29T09:17:30;97719.59;;;-4.58;57.95
49943;BME280;36011;53.362;58.948;2022-12-29T09:21:12;97728.56;;;-4.03;57.08
49943;BME280;36011;53.362;58.948;2022-12-29T09:24:19;97713.34;;;-3.65;56.34
49943;BME280;36011;53.362;58.948;2022-12-29T09:27:28;97716.78;;;-3.62;55.24
49943;BME280;36011;53.362;58.948;2022-12-29T09:30:33;97717.59;;;-3.73;55.61
49943;BME280;36011;53.362;58.948;2022-12-29T09:33:34;97705.72;;;-3.39;55.13
49943;BME280;36011;53.362;58.948;2022-12-29T09:36:38;97708.34;;;-3.24;54.57
49943;BME280;36011;53.362;58.948;2022-12-29T09:39:39;97707.47;;;-3.27;53.67
49943;BME280;36011;53.362;58.948;2022-12-29T09:42:43;97710.88;;;-3.34;54.55
49943;BME280;36011;53.362;58.948;2022-12-29T09:52:32;97704.19;;;-2.57;53.36
49943;BME280;36011;53.362;58.948;2022-12-29T09:55:39;97703.31;;;-2.65;53.61
49943;BME280;36011;53.362;58.948;2022-12-29T09:58:44;97699.84;;;-2.89;53.29
49943;BME280;36011;53.362;58.948;2022-12-29T10:01:58;97705.81;;;-2.98;53.55
49943;BME280;36011;53.362;58.948;2022-12-29T10:05:03;97710.16;;;-2.72;53.61
49943;BME280;36011;53.362;58.948;2022-12-29T10:08:15;97702.38;;;-1.98;52.51
49943;BME280;36011;53.362;58.948;2022-12-29T10:24:04;97696.00;;;-4.04;54.64
49943;BME280;36011;53.362;58.948;2022-12-29T10:27:13;97699.19;;;-4.39;55.02
49943;BME280;36011;53.362;58.948;2022-12-29T10:30:14;97701.53;;;-4.65;55.56
49943;BME280;36011;53.362;58.948;2022-12-29T10:33:21;97701.41;;;-4.82;55.96
49943;BME280;36011;53.362;58.948;2022-12-29T10:36:33;97704.66;;;-5.00;55.50
49943;BME280;36011;53.362;58.948;2022-12-29T10:39:40;97706.22;;;-5.17;55.86
49943;BME280;36011;53.362;58.948;2022-12-29T10:42:45;97706.84;;;-5.35;56.31
49943;BME280;36011;53.362;58.948;2022-12-29T10:45:51;97710.03;;;-5.55;56.45
49943;BME280;36011;53.362;58.948;2022-12-29T10:48:56;97701.09;;;-5.88;56.11
49943;BME280;36011;53.362;58.948;2022-12-29T10:52:03;97699.84;;;-6.19;56.31
49943;BME280;36011;53.362;58.948;2022-12-29T10:58:12;97705.06;;;-6.70;57.49
49943;BME280;36011;53.362;58.948;2022-12-29T11:01:19;97704.69;;;-6.92;57.66
49943;BME280;36011;53.362;58.948;2022-12-29T11:04:33;97711.38;;;-7.00;57.97
49943;BME280;36011;53.362;58.948;2022-12-29T11:07:39;97707.91;;;-7.02;57.65
49943;BME280;36011;53.362;58.948;2022-12-29T11:10:43;97706.94;;;-7.09;57.47
49943;BME280;36011;53.362;58.948;2022-12-29T11:13:48;97705.88;;;-7.21;57.86
49943;BME280;36011;53.362;58.948;2022-12-29T11:16:56;97702.13;;;-7.39;58.20
49943;BME280;36011;53.362;58.948;2022-12-29T11:20:03;97700.88;;;-7.61;57.93
49943;BME280;36011;53.362;58.948;2022-12-29T11:26:37;97708.09;;;-7.84;58.82
49943;BME280;36011;53.362;58.948;2022-12-29T11:29:40;97706.22;;;-7.91;58.57
49943;BME280;36011;53.362;58.948;2022-12-29T11:32:50;97702.56;;;-8.02;58.67
49943;BME280;36011;53.362;58.948;2022-12-29T11:35:56;97716.75;;;-8.17;58.75
49943;BME280;36011;53.362;58.948;2022-12-29T11:39:03;97703.47;;;-8.38;58.89
49943;BME280;36011;53.362;58.948;2022-12-29T11:42:11;97698.72;;;-8.62;58.92
49943;BME280;36011;53.362;58.948;2022-12-29T11:45:15;97701.84;;;-8.74;59.43
49943;BME280;36011;53.362;58.948;2022-12-29T11:48:20;97689.63;;;-8.87;59.63
49943;BME280;36011;53.362;58.948;2022-12-29T11:51:25;97683.47;;;-8.95;59.21
49943;BME280;36011;53.362;58.948;2022-12-29T11:54:33;97684.94;;;-9.05;59.53
49943;BME280;36011;53.362;58.948;2022-12-29T11:57:37;97685.53;;;-9.15;59.62
49943;BME280;36011;53.362;58.948;2022-12-29T12:00:46;97683.69;;;-9.21;59.54
49943;BME280;36011;53.362;58.948;2022-12-29T12:07:19;97688.25;;;-9.42;59.82
49943;BME280;36011;53.362;58.948;2022-12-29T12:10:32;97697.38;;;-9.51;59.87
49943;BME280;36011;53.362;58.948;2022-12-29T12:13:36;97692.97;;;-9.56;60.26
49943;BME280;36011;53.362;58.948;2022-12-29T12:16:43;97702.88;;;-9.67;59.98
49943;BME280;36011;53.362;58.948;2022-12-29T12:26:32;97702.06;;;-9.96;60.44
49943;BME280;36011;53.362;58.948;2022-12-29T12:29:42;97707.94;;;-9.99;60.56
49943;BME280;36011;53.362;58.948;2022-12-29T12:58:03;97716.63;;;-9.60;60.23
49943;BME280;36011;53.362;58.948;2022-12-29T13:23:17;97717.75;;;-9.51;60.23
49943;BME280;36011;53.362;58.948;2022-12-29T13:26:39;97721.94;;;-9.53;60.24
49943;BME280;36011;53.362;58.948;2022-12-29T13:29:48;97708.25;;;-9.56;60.09
49943;BME280;36011;53.362;58.948;2022-12-29T13:42:40;97704.03;;;-9.56;60.18
49943;BME280;36011;53.362;58.948;2022-12-29T13:45:43;97694.59;;;-9.58;60.47
49943;BME280;36011;53.362;58.948;2022-12-29T13:48:51;97692.09;;;-9.57;60.44
49943;BME280;36011;53.362;58.948;2022-12-29T13:51:58;97689.66;;;-9.54;60.03
49943;BME280;36011;53.362;58.948;2022-12-29T13:58:18;97699.84;;;-9.54;60.45
49943;BME280;36011;53.362;58.948;2022-12-29T14:01:28;97697.88;;;-9.62;60.06
49943;BME280;36011;53.362;58.948;2022-12-29T14:04:32;97700.22;;;-9.70;60.47
49943;BME280;36011;53.362;58.948;2022-12-29T14:07:37;97698.41;;;-9.74;60.53
49943;BME280;36011;53.362;58.948;2022-12-29T14:10:45;97697.56;;;-9.75;60.52
49943;BME280;36011;53.362;58.948;2022-12-29T14:13:47;97703.59;;;-9.71;60.30
49943;BME280;36011;53.362;58.948;2022-12-29T14:16:51;97699.31;;;-9.72;60.67
49943;BME280;36011;53.362;58.948;2022-12-29T14:19:55;97703.69;;;-9.68;60.33
49943;BME280;36011;53.362;58.948;2022-12-29T14:23:03;97712.22;;;-9.66;60.52
49943;BME280;36011;53.362;58.948;2022-12-29T14:32:38;97707.47;;;-9.54;60.38
49943;BME280;36011;53.362;58.948;2022-12-29T14:35:43;97707.63;;;-9.47;60.52
49943;BME280;36011;53.362;58.948;2022-12-29T14:38:47;97702.53;;;-9.47;60.21
49943;BME280;36011;53.362;58.948;2022-12-29T14:41:48;97701.69;;;-9.48;60.27
49943;BME280;36011;53.362;58.948;2022-12-29T14:45:07;97707.63;;;-9.47;60.11
49943;BME280;36011;53.362;58.948;2022-12-29T14:51:34;97713.75;;;-9.41;60.39
49943;BME280;36011;53.362;58.948;2022-12-29T14:57:40;97712.97;;;-9.38;60.40
49943;BME280;36011;53.362;58.948;2022-12-29T15:00:43;97702.84;;;-9.35;60.42
49943;BME280;36011;53.362;58.948;2022-12-29T15:03:46;97701.22;;;-9.33;60.66
49943;BME280;36011;53.362;58.948;2022-12-29T15:06:50;97696.13;;;-9.33;60.25
49943;BME280;36011;53.362;58.948;2022-12-29T15:09:57;97695.28;;;-9.34;60.45
49943;BME280;36011;53.362;58.948;2022-12-29T15:13:05;97706.16;;;-9.39;60.17
49943;BME280;36011;53.362;58.948;2022-12-29T15:16:22;97700.06;;;-9.44;60.22
49943;BME280;36011;53.362;58.948;2022-12-29T15:19:27;97698.25;;;-9.49;60.21
49943;BME280;36011;53.362;58.948;2022-12-29T15:22:28;97697.31;;;-9.52;60.46
49943;BME280;36011;53.362;58.948;2022-12-29T15:25:31;97695.63;;;-9.52;60.50
49943;BME280;36011;53.362;58.948;2022-12-29T15:28:40;97707.56;;;-9.51;60.52
49943;BME280;36011;53.362;58.948;2022-12-29T15:31:47;97709.19;;;-9.53;60.67
49943;BME280;36011;53.362;58.948;2022-12-29T15:34:54;97704.09;;;-9.53;60.53
49943;BME280;36011;53.362;58.948;2022-12-29T15:37:58;97703.09;;;-9.58;60.59
49943;BME280;36011;53.362;58.948;2022-12-29T15:41:04;97697.19;;;-9.57;60.85
49943;BME280;36011;53.362;58.948;2022-12-29T15:44:12;97697.19;;;-9.57;60.72
49943;BME280;36011;53.362;58.948;2022-12-29T15:47:16;97698.94;;;-9.56;60.77
49943;BME280;36011;53.362;58.948;2022-12-29T15:50:26;97708.28;;;-9.55;60.82
49943;BME280;36011;53.362;58.948;2022-12-29T15:53:28;97710.84;;;-9.55;60.65
49943;BME280;36011;53.362;58.948;2022-12-29T15:56:31;97709.13;;;-9.56;60.65
49943;BME280;36011;53.362;58.948;2022-12-29T15:59:44;97704.88;;;-9.55;60.43
49943;BME280;36011;53.362;58.948;2022-12-29T16:02:47;97699.66;;;-9.60;60.73
49943;BME280;36011;53.362;58.948;2022-12-29T16:05:50;97695.31;;;-9.64;60.71
49943;BME280;36011;53.362;58.948;2022-12-29T16:08:59;97705.25;;;-9.73;60.79
49943;BME280;36011;53.362;58.948;2022-12-29T16:12:04;97696.69;;;-9.75;60.74
49943;BME280;36011;53.362;58.948;2022-12-29T16:15:12;97701.63;;;-9.81;60.62
49943;BME280;36011;53.362;58.948;2022-12-29T16:18:21;97699.78;;;-9.85;60.59
49943;BME280;36011;53.362;58.948;2022-12-29T16:21:32;97705.56;;;-9.91;60.77
49943;BME280;36011;53.362;58.948;2022-12-29T16:24:34;97700.09;;;-10.05;60.42
49943;BME280;36011;53.362;58.948;2022-12-29T16:27:56;97700.56;;;-10.18;60.57
49943;BME280;36011;53.362;58.948;2022-12-29T16:31:00;97707.47;;;-10.14;61.12
49943;BME280;36011;53.362;58.948;2022-12-29T16:37:37;97703.22;;;-10.44;60.78
49943;BME280;36011;53.362;58.948;2022-12-29T16:40:48;97692.22;;;-10.43;61.08
49943;BME280;36011;53.362;58.948;2022-12-29T16:44:10;97688.22;;;-10.34;61.10
49943;BME280;36011;53.362;58.948;2022-12-29T16:50:18;97690.78;;;-10.34;60.59
49943;BME280;36011;53.362;58.948;2022-12-29T16:53:26;97703.31;;;-10.41;60.45
49943;BME280;36011;53.362;58.948;2022-12-29T16:56:33;97703.22;;;-10.44;60.84
49943;BME280;36011;53.362;58.948;2022-12-29T16:59:39;97701.41;;;-10.48;60.84
49943;BME280;36011;53.362;58.948;2022-12-29T17:02:43;97701.22;;;-10.54;60.77
49943;BME280;36011;53.362;58.948;2022-12-29T17:05:49;97698.56;;;-10.57;60.70
49943;BME280;36011;53.362;58.948;2022-12-29T17:08:52;97690.94;;;-10.57;60.93
49943;BME280;36011;53.362;58.948;2022-12-29T17:11:57;97684.94;;;-10.59;60.89
49943;BME280;36011;53.362;58.948;2022-12-29T17:15:02;97686.38;;;-10.67;60.79
49943;BME280;36011;53.362;58.948;2022-12-29T17:18:07;97688.13;;;-10.66;61.00
49943;BME280;36011;53.362;58.948;2022-12-29T17:21:15;97684.94;;;-10.59;60.98
49943;BME280;36011;53.362;58.948;2022-12-29T17:24:19;97686.91;;;-10.50;60.78
49943;BME280;36011;53.362;58.948;2022-12-29T17:27:26;97684.41;;;-10.49;60.65
49943;BME280;36011;53.362;58.948;2022-12-29T17:30:33;97684.31;;;-10.52;60.88
49943;BME280;36011;53.362;58.948;2022-12-29T17:33:36;97677.53;;;-10.53;60.67
49943;BME280;36011;53.362;58.948;2022-12-29T17:36:40;97672.44;;;-10.53;60.94
49943;BME280;36011;53.362;58.948;2022-12-29T17:39:44;97668.06;;;-10.57;60.63
49943;BME280;36011;53.362;58.948;2022-12-29T17:42:45;97661.16;;;-10.61;60.86
49943;BME280;36011;53.362;58.948;2022-12-29T17:45:54;97665.34;;;-10.63;60.87
49943;BME280;36011;53.362;58.948;2022-12-29T17:48:55;97661.25;;;-10.58;61.06
49943;BME280;36011;53.362;58.948;2022-12-29T17:51:56;97668.97;;;-10.55;60.91
49943;BME280;36011;53.362;58.948;2022-12-29T17:54:58;97660.50;;;-10.54;60.94
49943;BME280;36011;53.362;58.948;2022-12-29T17:58:14;97668.25;;;-10.51;60.97
49943;BME280;36011;53.362;58.948;2022-12-29T18:01:15;97673.19;;;-10.55;60.70
49943;BME280;36011;53.362;58.948;2022-12-29T18:04:23;97676.44;;;-10.61;60.77
49943;BME280;36011;53.362;58.948;2022-12-29T18:11:09;97658.53;;;-10.64;60.83
49943;BME280;36011;53.362;58.948;2022-12-29T18:14:14;97657.38;;;-10.74;60.84
49943;BME280;36011;53.362;58.948;2022-12-29T18:17:18;97670.06;;;-10.75;61.13
49943;BME280;36011;53.362;58.948;2022-12-29T18:20:22;97663.03;;;-10.82;60.95
49943;BME280;36011;53.362;58.948;2022-12-29T18:23:29;97664.66;;;-10.85;61.05
49943;BME280;36011;53.362;58.948;2022-12-29T18:26:38;97667.16;;;-10.86;61.23
49943;BME280;36011;53.362;58.948;2022-12-29T18:29:39;97671.53;;;-10.82;61.36
49943;BME280;36011;53.362;58.948;2022-12-29T18:32:41;97669.03;;;-10.80;60.88
49943;BME280;36011;53.362;58.948;2022-12-29T18:35:51;97667.19;;;-10.85;60.82
49943;BME280;36011;53.362;58.948;2022-12-29T18:38:53;97663.69;;;-10.88;61.08
49943;BME280;36011;53.362;58.948;2022-12-29T18:41:57;97671.31;;;-10.90;61.11